createdAt,value
2019-04-11T00:01:48.052Z,54.90
2019-04-11T00:04:34.446Z,55.00
2019-04-11T00:07:22.798Z,55.00
2019-04-11T00:10:12.388Z,55.10
2019-04-11T00:13:01.242Z,55.10
2019-04-11T00:15:50.889Z,55.20
2019-04-11T00:18:39.137Z,55.20
2019-04-11T00:21:27.421Z,55.20
2019-04-11T00:24:18.753Z,55.20
2019-04-11T00:27:07.259Z,55.20
2019-04-11T00:29:55.512Z,55.20
2019-04-11T00:32:43.924Z,55.30
2019-04-11T00:35:33.585Z,55.20
2019-04-11T00:38:23.477Z,55.30
2019-04-11T00:41:11.566Z,55.30
2019-04-11T00:44:00.764Z,55.30
2019-04-11T00:46:51.358Z,55.40
2019-04-11T00:49:22.124Z,55.30
2019-04-11T00:52:10.345Z,55.30
2019-04-11T00:54:59.512Z,55.30
2019-04-11T00:57:47.559Z,55.30
2019-04-11T01:00:37.074Z,55.30
2019-04-11T01:03:26.536Z,55.30
2019-04-11T01:06:14.738Z,55.30
2019-04-11T01:09:04.756Z,55.30
2019-04-11T01:11:52.860Z,55.30
2019-04-11T01:14:41.031Z,55.30
2019-04-11T01:17:29.615Z,55.30
2019-04-11T01:20:17.805Z,55.20
2019-04-11T01:23:06.835Z,55.30
2019-04-11T01:25:55.628Z,55.30
2019-04-11T01:28:44.902Z,55.30
2019-04-11T01:31:35.892Z,55.30
2019-04-11T01:34:24.567Z,55.30
2019-04-11T01:37:13.385Z,55.20
2019-04-11T01:40:02.108Z,55.30
2019-04-11T01:42:51.354Z,55.20
2019-04-11T01:45:41.252Z,55.30
2019-04-11T01:48:36.530Z,55.20
2019-04-11T01:51:25.430Z,55.30
2019-04-11T01:54:13.680Z,55.30
2019-04-11T01:57:03.425Z,55.30
2019-04-11T01:59:51.772Z,55.30
2019-04-11T02:02:44.443Z,55.20
2019-04-11T02:05:34.908Z,55.20
2019-04-11T02:08:23.119Z,55.30
2019-04-11T02:11:12.921Z,55.20
2019-04-11T02:14:10.914Z,55.20
2019-04-11T02:16:52.241Z,55.20
2019-04-11T02:19:40.816Z,55.20
2019-04-11T02:22:31.065Z,55.20
2019-04-11T02:25:30.419Z,55.20
2019-04-11T02:28:20.447Z,55.20
2019-04-11T02:31:10.133Z,55.20
2019-04-11T02:33:59.399Z,55.20
2019-04-11T02:36:49.029Z,55.10
2019-04-11T02:39:38.613Z,55.20
2019-04-11T02:42:27.734Z,55.10
2019-04-11T02:45:31.209Z,55.20
2019-04-11T02:48:11.497Z,55.10
2019-04-11T02:50:43.312Z,55.10
2019-04-11T02:53:34.204Z,55.20
2019-04-11T02:56:23.797Z,55.10
2019-04-11T02:59:13.474Z,55.10
2019-04-11T03:02:01.953Z,55.10
2019-04-11T03:04:51.026Z,55.10
2019-04-11T03:07:40.148Z,55.10
2019-04-11T03:10:31.268Z,55.10
2019-04-11T03:13:20.656Z,55.10
2019-04-11T03:16:24.718Z,55.10
2019-04-11T03:19:17.880Z,55.10
2019-04-11T03:21:50.244Z,55.20
2019-04-11T03:24:40.629Z,55.00
2019-04-11T03:27:30.534Z,55.10
2019-04-11T03:30:25.070Z,55.00
2019-04-11T03:34:03.728Z,55.00
2019-04-11T03:36:50.265Z,55.00
2019-04-11T03:39:12.024Z,54.90
2019-04-11T03:41:54.779Z,54.70
2019-04-11T03:44:39.515Z,54.70
2019-04-11T03:47:44.796Z,54.60
2019-04-11T03:50:37.155Z,54.50
2019-04-11T03:53:29.487Z,54.40
2019-04-11T03:56:16.267Z,54.40
2019-04-11T03:59:10.273Z,54.40
2019-04-11T04:01:59.731Z,54.30
2019-04-11T04:04:49.368Z,54.30
2019-04-11T04:07:40.082Z,54.30
2019-04-11T04:10:29.625Z,54.40
2019-04-11T04:13:20.566Z,54.30
2019-04-11T04:16:27.427Z,54.30
2019-04-11T04:19:16.253Z,54.30
2019-04-11T04:22:18.711Z,54.30
2019-04-11T04:24:59.493Z,54.30
2019-04-11T04:27:36.216Z,54.30
2019-04-11T04:34:01.980Z,54.30
2019-04-11T04:41:07.523Z,54.30
2019-04-11T04:44:01.643Z,54.40
2019-04-11T04:47:26.093Z,54.40
2019-04-11T04:54:00.879Z,54.40
2019-04-11T04:56:09.077Z,54.40
2019-04-11T04:59:06.961Z,54.40
2019-04-11T05:02:12.985Z,54.40
2019-04-11T05:05:11.312Z,54.50
2019-04-11T05:08:03.318Z,54.40
2019-04-11T05:11:18.642Z,54.40
2019-04-11T05:14:10.542Z,54.30
2019-04-11T05:17:00.167Z,54.40
2019-04-11T05:20:21.908Z,54.20
2019-04-11T05:22:59.925Z,53.90
2019-04-11T05:35:56.995Z,54.10
2019-04-11T05:39:03.036Z,54.20
2019-04-11T05:42:07.579Z,54.20
2019-04-11T05:45:00.021Z,54.20
2019-04-11T05:48:03.258Z,54.20
2019-04-11T05:51:00.615Z,54.30
2019-04-11T05:53:54.523Z,54.30
2019-04-11T05:56:41.921Z,54.40
2019-04-11T05:59:30.713Z,54.50
2019-04-11T06:02:23.160Z,54.40
2019-04-11T06:05:13.271Z,54.40
2019-04-11T06:08:06.584Z,54.40
2019-04-11T06:11:14.412Z,54.40
2019-04-11T06:14:06.151Z,54.40
2019-04-11T06:16:57.610Z,54.20
2019-04-11T06:20:02.101Z,54.20
2019-04-11T06:23:04.925Z,54.20
2019-04-11T06:25:55.587Z,54.20
2019-04-11T06:28:44.528Z,54.10
2019-04-11T06:31:51.598Z,54.10
2019-04-11T06:34:57.991Z,54.00
2019-04-11T06:38:00.723Z,54.00
2019-04-11T06:41:03.377Z,54.00
2019-04-11T06:43:57.028Z,53.80
2019-04-11T06:46:58.954Z,54.00
2019-04-11T06:49:55.932Z,54.00
2019-04-11T06:52:45.606Z,54.00
2019-04-11T06:55:50.957Z,53.90
2019-04-11T06:58:41.869Z,53.90
2019-04-11T07:01:31.023Z,53.80
2019-04-11T07:04:23.153Z,53.70
2019-04-11T07:07:14.380Z,53.80
2019-04-11T07:10:06.202Z,53.80
2019-04-11T07:12:57.624Z,53.70
2019-04-11T07:15:48.436Z,53.60
2019-04-11T07:18:44.297Z,53.50
2019-04-11T07:21:38.373Z,53.40
2019-04-11T07:24:28.298Z,53.60
2019-04-11T07:27:16.373Z,53.90
2019-04-11T07:30:26.843Z,54.00
2019-04-11T07:33:33.103Z,54.20
2019-04-11T07:36:40.433Z,54.40
2019-04-11T07:39:37.883Z,54.10
2019-04-11T07:42:43.999Z,53.70
2019-04-11T07:45:34.662Z,53.30
2019-04-11T07:48:27.174Z,52.60
2019-04-11T07:51:17.819Z,52.20
2019-04-11T07:54:06.360Z,51.70
2019-04-11T07:57:12.972Z,51.30
2019-04-11T08:00:06.228Z,50.90
2019-04-11T08:03:02.014Z,49.40
2019-04-11T08:06:16.640Z,49.80
2019-04-11T08:09:24.411Z,50.30
2019-04-11T08:12:39.801Z,50.50
2019-04-11T08:15:46.336Z,50.40
2019-04-11T08:18:45.369Z,50.30
2019-04-11T08:21:47.387Z,50.40
2019-04-11T08:24:40.593Z,50.50
2019-04-11T08:27:55.930Z,50.70
2019-04-11T08:30:39.924Z,50.80
2019-04-11T08:33:30.828Z,50.90
2019-04-11T08:36:22.281Z,50.90
2019-04-11T08:39:15.846Z,51.00
2019-04-11T08:42:25.409Z,51.00
2019-04-11T08:45:17.504Z,51.10
2019-04-11T08:51:37.641Z,51.40
2019-04-11T08:54:35.514Z,51.40
2019-04-11T08:57:42.673Z,51.30
2019-04-11T09:00:44.370Z,51.30
2019-04-11T09:03:39.954Z,51.30
2019-04-11T09:06:30.630Z,51.20
2019-04-11T09:09:23.209Z,51.10
2019-04-11T09:12:14.159Z,50.60
2019-04-11T09:15:41.686Z,50.80
2019-04-11T09:24:08.378Z,50.80
2019-04-11T09:26:58.250Z,50.80
2019-04-11T09:29:30.798Z,50.90
2019-04-11T09:32:20.635Z,50.90
2019-04-11T09:35:22.282Z,50.90
2019-04-11T09:38:24.339Z,50.80
2019-04-11T09:41:30.201Z,50.80
2019-04-11T09:44:20.354Z,50.70
2019-04-11T09:47:19.937Z,50.70
2019-04-11T09:50:12.977Z,50.70
2019-04-11T09:53:01.619Z,50.70
2019-04-11T09:56:07.530Z,50.70
2019-04-11T09:58:58.282Z,50.60
2019-04-11T10:01:54.051Z,50.60
2019-04-11T10:04:43.880Z,50.60
2019-04-11T10:07:37.607Z,50.60
2019-04-11T10:10:33.529Z,50.60
2019-04-11T10:13:24.938Z,50.60
2019-04-11T10:16:29.618Z,50.70
2019-04-11T10:19:22.542Z,50.90
2019-04-11T10:22:20.691Z,50.90
2019-04-11T10:25:12.790Z,51.00
2019-04-11T10:28:05.947Z,51.00
2019-04-11T10:31:06.383Z,51.10
2019-04-11T10:33:57.406Z,50.80
2019-04-11T10:36:47.497Z,50.70
2019-04-11T10:39:37.578Z,50.70
2019-04-11T10:42:26.626Z,50.70
2019-04-11T10:45:23.058Z,50.70
2019-04-11T10:48:12.089Z,50.70
2019-04-11T10:51:14.924Z,50.60
2019-04-11T10:54:06.933Z,50.60
2019-04-11T10:57:11.932Z,50.50
2019-04-11T11:00:01.372Z,50.50
2019-04-11T11:03:07.610Z,50.40
2019-04-11T11:05:57.933Z,50.30
2019-04-11T11:09:04.319Z,50.20
2019-04-11T11:12:10.691Z,50.20
2019-04-11T11:15:15.676Z,50.10
2019-04-11T11:18:35.218Z,50.10
2019-04-11T11:21:00.337Z,50.10
2019-04-11T11:24:05.455Z,50.00
2019-04-11T11:26:55.573Z,50.00
2019-04-11T11:29:51.557Z,50.10
2019-04-11T11:32:41.140Z,50.00
2019-04-11T11:35:49.974Z,50.10
2019-04-11T11:38:40.234Z,50.10
2019-04-11T11:41:46.890Z,50.10
2019-04-11T11:44:43.294Z,50.10
2019-04-11T11:47:48.996Z,50.40
2019-04-11T11:50:37.619Z,50.30
2019-04-11T11:53:40.563Z,50.30
2019-04-11T11:56:30.058Z,50.40
2019-04-11T11:59:25.557Z,50.30
2019-04-11T12:02:24.266Z,50.40
2019-04-11T12:05:20.496Z,50.40
2019-04-11T12:08:16.909Z,50.40
2019-04-11T12:11:08.184Z,50.40
2019-04-11T12:14:16.335Z,50.30
2019-04-11T12:17:10.144Z,50.30
2019-04-11T12:20:06.465Z,50.30
2019-04-11T12:22:52.048Z,50.30
2019-04-11T12:25:41.999Z,50.30
2019-04-11T12:28:47.879Z,50.20
2019-04-11T12:31:38.036Z,50.20
2019-04-11T12:34:30.456Z,50.20
2019-04-11T12:37:35.864Z,50.20
2019-04-11T12:40:42.394Z,50.10
2019-04-11T12:43:32.371Z,50.10
2019-04-11T12:46:38.408Z,50.20
2019-04-11T12:49:52.467Z,50.20
2019-04-11T12:56:06.063Z,50.20
2019-04-11T12:58:57.158Z,50.10
2019-04-11T13:02:03.089Z,50.20
2019-04-11T13:04:51.499Z,50.30
2019-04-11T13:07:41.355Z,50.60
2019-04-11T13:10:32.541Z,51.40
2019-04-11T13:13:22.722Z,51.90
2019-04-11T13:16:12.968Z,51.90
2019-04-11T13:19:20.608Z,52.40
2019-04-11T13:22:10.290Z,52.10
2019-04-11T13:25:00.511Z,51.60
2019-04-11T13:27:53.677Z,51.50
2019-04-11T13:30:49.874Z,51.50
2019-04-11T13:33:40.709Z,52.10
2019-04-11T13:36:33.557Z,52.20
2019-04-11T13:39:22.967Z,52.20
2019-04-11T13:42:25.284Z,52.30
2019-04-11T13:45:15.421Z,52.20
2019-04-11T13:48:22.053Z,52.30
2019-04-11T13:51:21.231Z,52.30
2019-04-11T13:54:17.936Z,52.20
2019-04-11T13:57:24.785Z,52.10
2019-04-11T14:00:31.910Z,52.10
2019-04-11T14:03:24.841Z,52.10
2019-04-11T14:06:15.072Z,51.70
2019-04-11T14:09:12.706Z,51.50
2019-04-11T14:12:04.848Z,51.50
2019-04-11T14:14:52.031Z,51.40
2019-04-11T14:17:58.369Z,51.40
2019-04-11T14:20:48.359Z,51.40
2019-04-11T14:23:49.899Z,51.40
2019-04-11T14:26:48.316Z,51.40
2019-04-11T14:29:53.873Z,51.40
2019-04-11T14:32:43.714Z,51.30
2019-04-11T14:35:33.807Z,51.20
2019-04-11T14:38:26.454Z,51.20
2019-04-11T14:41:16.836Z,51.10
2019-04-11T14:44:06.755Z,51.00
2019-04-11T14:47:12.891Z,51.10
2019-04-11T14:50:03.196Z,50.90
2019-04-11T14:52:53.240Z,50.80
2019-04-11T14:55:41.468Z,50.70
2019-04-11T14:58:31.586Z,50.70
2019-04-11T15:01:27.919Z,50.50
2019-04-11T15:04:15.846Z,50.40
2019-04-11T15:07:05.353Z,50.40
2019-04-11T15:10:14.686Z,50.30
2019-04-11T15:13:02.844Z,50.20
2019-04-11T15:16:02.956Z,50.20
2019-04-11T15:19:18.028Z,50.10
2019-04-11T15:22:07.950Z,50.00
2019-04-11T15:28:50.439Z,50.00
2019-04-11T15:32:36.740Z,50.80
2019-04-11T15:34:52.800Z,50.90
2019-04-11T15:41:06.648Z,50.70
2019-04-11T15:47:19.589Z,50.60
2019-04-11T15:50:38.041Z,50.50
2019-04-11T15:53:40.090Z,50.50
2019-04-11T15:56:41.711Z,50.40
2019-04-11T15:59:30.563Z,50.60
2019-04-11T16:02:36.365Z,50.70
2019-04-11T16:05:35.353Z,50.60
2019-04-11T16:08:25.421Z,50.70
2019-04-11T16:11:21.362Z,50.80
2019-04-11T16:14:10.313Z,51.00
2019-04-11T16:17:16.319Z,50.80
2019-04-11T16:20:06.577Z,50.90
2019-04-11T16:23:12.774Z,51.10
2019-04-11T16:26:01.714Z,50.90
2019-04-11T16:29:00.551Z,51.10
2019-04-11T16:31:48.895Z,51.20
2019-04-11T16:34:47.868Z,51.10
2019-04-11T16:37:29.300Z,51.00
2019-04-11T16:40:37.649Z,51.00
2019-04-11T16:43:26.193Z,51.10
2019-04-11T16:46:24.659Z,50.80
2019-04-11T16:49:11.362Z,50.60
2019-04-11T16:52:00.084Z,50.40
2019-04-11T16:54:48.731Z,50.40
2019-04-11T16:57:36.911Z,50.40
2019-04-11T17:00:25.314Z,50.30
2019-04-11T17:03:14.247Z,50.30
2019-04-11T17:06:05.474Z,50.30
2019-04-11T17:08:56.458Z,50.30
2019-04-11T17:11:45.167Z,50.30
2019-04-11T17:14:33.808Z,50.40
2019-04-11T17:17:22.778Z,50.30
2019-04-11T17:20:12.233Z,50.40
2019-04-11T17:23:02.276Z,50.40
2019-04-11T17:25:52.994Z,50.40
2019-04-11T17:28:43.275Z,50.40
2019-04-11T17:31:30.466Z,50.40
2019-04-11T17:34:19.028Z,50.40
2019-04-11T17:36:55.455Z,50.40
2019-04-11T17:39:43.733Z,50.40
2019-04-11T17:42:32.284Z,50.40
2019-04-11T17:45:20.774Z,50.40
2019-04-11T17:48:09.110Z,50.40
2019-04-11T17:50:57.537Z,50.40
2019-04-11T17:53:45.913Z,50.40
2019-04-11T17:56:37.514Z,50.40
2019-04-11T17:59:28.042Z,50.40
2019-04-11T18:02:15.578Z,50.30
2019-04-11T18:05:04.410Z,50.40
2019-04-11T18:07:52.952Z,50.40
2019-04-11T18:10:41.432Z,50.40
2019-04-11T18:13:31.415Z,50.40
2019-04-11T18:16:20.068Z,50.40
2019-04-11T18:19:09.850Z,50.40
2019-04-11T18:22:07.261Z,50.40
2019-04-11T18:24:50.102Z,50.40
2019-04-11T18:27:39.002Z,50.40
2019-04-11T18:30:27.153Z,50.40
2019-04-11T18:33:16.279Z,50.40
2019-04-11T18:36:06.642Z,50.40
2019-04-11T18:38:54.839Z,50.50
2019-04-11T18:41:43.176Z,50.50
2019-04-11T18:44:31.738Z,50.50
2019-04-11T18:47:20.235Z,50.50
2019-04-11T18:50:09.245Z,50.50
2019-04-11T18:52:59.491Z,50.50
2019-04-11T18:55:49.088Z,50.40
2019-04-11T18:58:37.309Z,50.50
2019-04-11T19:01:25.758Z,50.50
2019-04-11T19:04:14.469Z,50.50
2019-04-11T19:07:07.927Z,50.60
2019-04-11T19:09:59.566Z,50.50
2019-04-11T19:12:48.520Z,50.60
2019-04-11T19:15:37.183Z,50.60
2019-04-11T19:18:25.369Z,50.50
2019-04-11T19:21:13.977Z,50.50
2019-04-11T19:24:02.886Z,50.50
2019-04-11T19:26:51.355Z,50.50
2019-04-11T19:29:39.479Z,50.60
2019-04-11T19:32:28.026Z,50.50
2019-04-11T19:35:16.629Z,50.60
2019-04-11T19:37:59.790Z,50.60
2019-04-11T19:40:49.157Z,50.60
2019-04-11T19:43:40.632Z,50.60
2019-04-11T19:46:28.593Z,50.60
2019-04-11T19:49:17.287Z,50.60
2019-04-11T19:52:06.305Z,50.60
2019-04-11T19:54:56.223Z,50.60
2019-04-11T19:57:44.697Z,50.60
2019-04-11T20:00:35.783Z,50.70
2019-04-11T20:03:24.729Z,50.70
2019-04-11T20:06:13.666Z,50.80
2019-04-11T20:09:02.736Z,50.70
2019-04-11T20:11:51.173Z,50.70
2019-04-11T20:14:39.421Z,50.80
2019-04-11T20:17:27.851Z,50.80
2019-04-11T20:20:16.348Z,50.90
2019-04-11T20:23:04.849Z,51.00
2019-04-11T20:25:53.299Z,51.00
2019-04-11T20:28:41.639Z,51.10
2019-04-11T20:31:30.456Z,51.20
2019-04-11T20:34:27.196Z,51.30
2019-04-11T20:37:12.529Z,51.30
2019-04-11T20:39:58.785Z,51.40
2019-04-11T20:42:47.484Z,51.40
2019-04-11T20:45:37.693Z,51.50
2019-04-11T20:48:26.204Z,51.50
2019-04-11T20:51:14.511Z,51.60
2019-04-11T20:54:07.022Z,51.60
2019-04-11T20:56:52.780Z,51.70
2019-04-11T20:59:42.291Z,51.80
2019-04-11T21:02:30.822Z,51.80
2019-04-11T21:05:19.183Z,51.90
2019-04-11T21:08:07.351Z,51.90
2019-04-11T21:10:55.459Z,52.00
2019-04-11T21:13:43.706Z,52.00
2019-04-11T21:16:32.362Z,52.00
2019-04-11T21:19:23.226Z,52.20
2019-04-11T21:22:10.493Z,52.20
2019-04-11T21:24:59.492Z,52.30
2019-04-11T21:27:48.695Z,52.30
2019-04-11T21:30:37.228Z,52.40
2019-04-11T21:33:25.320Z,52.40
2019-04-11T21:36:13.628Z,52.50
2019-04-11T21:39:03.906Z,52.50
2019-04-11T21:41:51.512Z,52.60
2019-04-11T21:44:39.958Z,52.60
2019-04-11T21:47:27.887Z,52.70
2019-04-11T21:50:16.312Z,52.80
2019-04-11T21:53:04.811Z,52.80
2019-04-11T21:55:53.452Z,52.80
2019-04-11T21:58:41.842Z,52.90
2019-04-11T22:01:31.170Z,53.00
2019-04-11T22:04:19.578Z,53.00
2019-04-11T22:07:10.178Z,53.10
2019-04-11T22:09:58.640Z,53.10
2019-04-11T22:12:47.350Z,53.20
2019-04-11T22:15:35.677Z,53.20
2019-04-11T22:18:24.016Z,53.30
2019-04-11T22:21:12.967Z,53.40
2019-04-11T22:24:03.492Z,53.50
2019-04-11T22:33:31.929Z,53.60
2019-04-11T22:36:30.610Z,53.80
2019-04-11T22:39:56.300Z,53.80
2019-04-11T22:42:52.357Z,53.80
2019-04-11T22:45:40.851Z,53.80
2019-04-11T22:52:04.491Z,54.00
2019-04-11T22:55:11.939Z,54.00
2019-04-11T22:58:17.780Z,54.10
2019-04-11T23:04:33.166Z,54.10
2019-04-11T23:07:30.160Z,54.20
2019-04-11T23:13:31.151Z,54.20
2019-04-11T23:16:47.081Z,54.20
2019-04-11T23:19:36.366Z,54.30
2019-04-11T23:22:31.923Z,54.30
2019-04-11T23:28:25.150Z,54.40
2019-04-11T23:31:22.383Z,54.50
2019-04-11T23:34:10.934Z,54.60
2019-04-11T23:37:15.462Z,54.60
2019-04-11T23:40:12.981Z,54.70
2019-04-11T23:43:08.521Z,54.80
2019-04-11T23:45:56.832Z,54.90
2019-04-11T23:48:45.807Z,54.90
2019-04-11T23:51:37.286Z,54.90
2019-04-11T23:54:28.979Z,54.90
2019-04-11T23:57:15.454Z,55.00
